sensor_id;sensor_type;location;lat;lon;timestamp;temperature;humidity
22069;DHT22;13887;57.196;-2.100;2022-09-13T00:01:16;14.47;73.70
22069;DHT22;13887;57.196;-2.100;2022-09-13T00:03:43;14.47;73.93
22069;DHT22;13887;57.196;-2.100;2022-09-13T00:06:12;14.45;73.76
22069;DHT22;13887;57.196;-2.100;2022-09-13T00:08:39;14.48;73.85
22069;DHT22;13887;57.196;-2.100;2022-09-13T00:11:13;14.47;73.96
22069;DHT22;13887;57.196;-2.100;2022-09-13T00:13:41;14.47;73.83
22069;DHT22;13887;57.196;-2.100;2022-09-13T00:16:11;14.45;73.83
22069;DHT22;13887;57.196;-2.100;2022-09-13T00:18:39;14.48;73.86
22069;DHT22;13887;57.196;-2.100;2022-09-13T00:21:11;14.44;73.73
22069;DHT22;13887;57.196;-2.100;2022-09-13T00:23:39;14.44;73.90
22069;DHT22;13887;57.196;-2.100;2022-09-13T00:26:13;14.44;74.11
22069;DHT22;13887;57.196;-2.100;2022-09-13T00:28:41;14.49;74.02
22069;DHT22;13887;57.196;-2.100;2022-09-13T00:31:08;14.50;73.86
22069;DHT22;13887;57.196;-2.100;2022-09-13T00:33:36;14.45;73.96
22069;DHT22;13887;57.196;-2.100;2022-09-13T00:36:08;14.44;74.29
22069;DHT22;13887;57.196;-2.100;2022-09-13T00:38:37;14.45;74.18
22069;DHT22;13887;57.196;-2.100;2022-09-13T00:41:06;14.45;74.28
22069;DHT22;13887;57.196;-2.100;2022-09-13T00:43:58;14.45;74.36
22069;DHT22;13887;57.196;-2.100;2022-09-13T00:49:04;14.44;74.46
22069;DHT22;13887;57.196;-2.100;2022-09-13T00:51:35;14.48;74.38
22069;DHT22;13887;57.196;-2.100;2022-09-13T00:54:03;14.49;74.43
22069;DHT22;13887;57.196;-2.100;2022-09-13T00:56:35;14.49;74.38
22069;DHT22;13887;57.196;-2.100;2022-09-13T00:59:14;14.48;74.30
22069;DHT22;13887;57.196;-2.100;2022-09-13T01:01:54;14.47;74.47
22069;DHT22;13887;57.196;-2.100;2022-09-13T01:04:23;14.47;74.34
22069;DHT22;13887;57.196;-2.100;2022-09-13T01:06:53;14.47;74.48
22069;DHT22;13887;57.196;-2.100;2022-09-13T01:09:21;14.45;74.50
22069;DHT22;13887;57.196;-2.100;2022-09-13T01:11:52;14.44;74.54
22069;DHT22;13887;57.196;-2.100;2022-09-13T01:14:22;14.45;74.40
22069;DHT22;13887;57.196;-2.100;2022-09-13T01:16:51;14.45;74.62
22069;DHT22;13887;57.196;-2.100;2022-09-13T01:19:19;14.49;74.35
22069;DHT22;13887;57.196;-2.100;2022-09-13T01:27:32;14.47;74.46
22069;DHT22;13887;57.196;-2.100;2022-09-13T01:30:20;14.44;74.64
22069;DHT22;13887;57.196;-2.100;2022-09-13T01:33:21;14.43;74.67
22069;DHT22;13887;57.196;-2.100;2022-09-13T01:39:03;14.39;74.68
22069;DHT22;13887;57.196;-2.100;2022-09-13T01:47:02;14.35;74.87
22069;DHT22;13887;57.196;-2.100;2022-09-13T01:52:49;14.37;74.76
22069;DHT22;13887;57.196;-2.100;2022-09-13T01:55:29;14.34;75.01
22069;DHT22;13887;57.196;-2.100;2022-09-13T02:00:51;14.34;74.93
22069;DHT22;13887;57.196;-2.100;2022-09-13T02:06:17;14.33;75.12
22069;DHT22;13887;57.196;-2.100;2022-09-13T02:08:53;14.32;75.18
22069;DHT22;13887;57.196;-2.100;2022-09-13T02:11:21;14.33;75.20
22069;DHT22;13887;57.196;-2.100;2022-09-13T02:14:12;14.30;75.29
22069;DHT22;13887;57.196;-2.100;2022-09-13T02:16:42;14.28;75.47
22069;DHT22;13887;57.196;-2.100;2022-09-13T02:22:21;14.23;75.76
22069;DHT22;13887;57.196;-2.100;2022-09-13T02:24:53;14.24;75.78
22069;DHT22;13887;57.196;-2.100;2022-09-13T02:27:26;14.24;75.87
22069;DHT22;13887;57.196;-2.100;2022-09-13T02:30:02;14.25;75.82
22069;DHT22;13887;57.196;-2.100;2022-09-13T02:32:42;14.23;75.89
22069;DHT22;13887;57.196;-2.100;2022-09-13T02:38:02;14.18;76.21
22069;DHT22;13887;57.196;-2.100;2022-09-13T02:40:42;14.21;76.13
22069;DHT22;13887;57.196;-2.100;2022-09-13T02:43:19;14.18;76.20
22069;DHT22;13887;57.196;-2.100;2022-09-13T02:46:11;14.13;76.37
22069;DHT22;13887;57.196;-2.100;2022-09-13T02:51:44;14.15;76.25
22069;DHT22;13887;57.196;-2.100;2022-09-13T02:56:54;14.17;76.29
22069;DHT22;13887;57.196;-2.100;2022-09-13T02:59:23;14.15;76.18
22069;DHT22;13887;57.196;-2.100;2022-09-13T03:02:07;14.12;76.31
22069;DHT22;13887;57.196;-2.100;2022-09-13T03:04:35;14.12;76.31
22069;DHT22;13887;57.196;-2.100;2022-09-13T03:07:02;14.14;76.31
22069;DHT22;13887;57.196;-2.100;2022-09-13T03:09:31;14.15;76.25
22069;DHT22;13887;57.196;-2.100;2022-09-13T03:12:06;14.13;76.44
22069;DHT22;13887;57.196;-2.100;2022-09-13T03:15:39;14.07;76.63
22069;DHT22;13887;57.196;-2.100;2022-09-13T03:23:57;14.12;76.63
22069;DHT22;13887;57.196;-2.100;2022-09-13T03:38:00;14.05;77.24
22069;DHT22;13887;57.196;-2.100;2022-09-13T03:40:37;14.00;77.53
22069;DHT22;13887;57.196;-2.100;2022-09-13T03:46:11;14.00;77.56
22069;DHT22;13887;57.196;-2.100;2022-09-13T03:48:41;14.03;77.52
22069;DHT22;13887;57.196;-2.100;2022-09-13T03:51:09;14.03;77.41
22069;DHT22;13887;57.196;-2.100;2022-09-13T03:53:42;14.03;77.51
22069;DHT22;13887;57.196;-2.100;2022-09-13T03:56:17;14.00;77.58
22069;DHT22;13887;57.196;-2.100;2022-09-13T03:58:46;13.99;77.64
22069;DHT22;13887;57.196;-2.100;2022-09-13T04:01:17;13.98;77.68
22069;DHT22;13887;57.196;-2.100;2022-09-13T04:03:45;13.97;77.63
22069;DHT22;13887;57.196;-2.100;2022-09-13T04:06:12;13.99;77.55
22069;DHT22;13887;57.196;-2.100;2022-09-13T04:08:39;14.01;77.49
22069;DHT22;13887;57.196;-2.100;2022-09-13T04:11:06;13.95;77.69
22069;DHT22;13887;57.196;-2.100;2022-09-13T04:13:35;13.95;77.65
22069;DHT22;13887;57.196;-2.100;2022-09-13T04:16:04;13.94;77.50
22069;DHT22;13887;57.196;-2.100;2022-09-13T04:18:32;13.97;77.43
22069;DHT22;13887;57.196;-2.100;2022-09-13T04:21:00;13.98;77.34
22069;DHT22;13887;57.196;-2.100;2022-09-13T04:23:28;13.98;77.31
22069;DHT22;13887;57.196;-2.100;2022-09-13T04:26:02;13.95;77.53
22069;DHT22;13887;57.196;-2.100;2022-09-13T04:28:30;13.95;77.45
22069;DHT22;13887;57.196;-2.100;2022-09-13T04:30:56;13.93;77.53
22069;DHT22;13887;57.196;-2.100;2022-09-13T04:33:23;13.96;77.44
22069;DHT22;13887;57.196;-2.100;2022-09-13T04:35:56;13.98;77.29
22069;DHT22;13887;57.196;-2.100;2022-09-13T04:38:24;13.92;77.49
22069;DHT22;13887;57.196;-2.100;2022-09-13T04:40:53;13.93;77.32
22069;DHT22;13887;57.196;-2.100;2022-09-13T04:43:20;13.89;77.46
22069;DHT22;13887;57.196;-2.100;2022-09-13T04:45:48;13.85;77.47
22069;DHT22;13887;57.196;-2.100;2022-09-13T04:48:15;13.86;77.53
22069;DHT22;13887;57.196;-2.100;2022-09-13T04:50:42;13.90;77.41
22069;DHT22;13887;57.196;-2.100;2022-09-13T04:53:10;13.88;77.43
22069;DHT22;13887;57.196;-2.100;2022-09-13T04:55:37;13.89;77.36
22069;DHT22;13887;57.196;-2.100;2022-09-13T04:58:04;13.90;77.36
22069;DHT22;13887;57.196;-2.100;2022-09-13T05:00:31;13.86;77.50
22069;DHT22;13887;57.196;-2.100;2022-09-13T05:02:59;13.90;77.43
22069;DHT22;13887;57.196;-2.100;2022-09-13T05:05:27;13.86;77.50
22069;DHT22;13887;57.196;-2.100;2022-09-13T05:07:54;13.82;77.78
22069;DHT22;13887;57.196;-2.100;2022-09-13T05:10:21;13.84;77.62
22069;DHT22;13887;57.196;-2.100;2022-09-13T05:12:48;13.82;77.76
22069;DHT22;13887;57.196;-2.100;2022-09-13T05:15:15;13.81;77.84
22069;DHT22;13887;57.196;-2.100;2022-09-13T05:17:42;13.78;77.91
22069;DHT22;13887;57.196;-2.100;2022-09-13T05:20:09;13.81;77.90
22069;DHT22;13887;57.196;-2.100;2022-09-13T05:22:36;13.83;77.88
22069;DHT22;13887;57.196;-2.100;2022-09-13T05:25:04;13.79;77.98
22069;DHT22;13887;57.196;-2.100;2022-09-13T05:27:31;13.80;77.88
22069;DHT22;13887;57.196;-2.100;2022-09-13T05:29:57;13.82;77.84
22069;DHT22;13887;57.196;-2.100;2022-09-13T05:32:24;13.77;77.94
22069;DHT22;13887;57.196;-2.100;2022-09-13T05:34:51;13.81;77.89
22069;DHT22;13887;57.196;-2.100;2022-09-13T05:37:18;13.79;77.88
22069;DHT22;13887;57.196;-2.100;2022-09-13T05:39:45;13.78;77.97
22069;DHT22;13887;57.196;-2.100;2022-09-13T05:42:32;13.79;77.95
22069;DHT22;13887;57.196;-2.100;2022-09-13T05:44:59;13.80;77.94
22069;DHT22;13887;57.196;-2.100;2022-09-13T05:47:26;13.82;77.75
22069;DHT22;13887;57.196;-2.100;2022-09-13T05:49:52;13.79;77.88
22069;DHT22;13887;57.196;-2.100;2022-09-13T05:52:39;13.85;77.72
22069;DHT22;13887;57.196;-2.100;2022-09-13T05:55:06;13.77;77.89
22069;DHT22;13887;57.196;-2.100;2022-09-13T05:57:33;13.74;78.02
22069;DHT22;13887;57.196;-2.100;2022-09-13T05:59:59;13.76;77.94
22069;DHT22;13887;57.196;-2.100;2022-09-13T06:02:26;13.79;77.75
22069;DHT22;13887;57.196;-2.100;2022-09-13T06:04:53;13.78;77.78
22069;DHT22;13887;57.196;-2.100;2022-09-13T06:07:20;13.73;77.82
22069;DHT22;13887;57.196;-2.100;2022-09-13T06:09:47;13.68;77.91
22069;DHT22;13887;57.196;-2.100;2022-09-13T06:12:14;13.66;77.89
22069;DHT22;13887;57.196;-2.100;2022-09-13T06:14:40;13.68;77.89
22069;DHT22;13887;57.196;-2.100;2022-09-13T06:17:07;13.73;77.66
22069;DHT22;13887;57.196;-2.100;2022-09-13T06:19:34;13.75;77.52
22069;DHT22;13887;57.196;-2.100;2022-09-13T06:22:01;13.68;77.47
22069;DHT22;13887;57.196;-2.100;2022-09-13T06:24:28;13.68;77.42
22069;DHT22;13887;57.196;-2.100;2022-09-13T06:26:55;13.71;77.52
22069;DHT22;13887;57.196;-2.100;2022-09-13T06:29:21;13.73;77.29
22069;DHT22;13887;57.196;-2.100;2022-09-13T06:31:48;13.74;77.39
22069;DHT22;13887;57.196;-2.100;2022-09-13T06:34:15;13.71;77.34
22069;DHT22;13887;57.196;-2.100;2022-09-13T06:36:43;13.70;77.11
22069;DHT22;13887;57.196;-2.100;2022-09-13T06:39:10;0.00;77.89
22069;DHT22;13887;57.196;-2.100;2022-09-13T06:41:37;13.58;77.31
22069;DHT22;13887;57.196;-2.100;2022-09-13T06:44:04;13.65;77.08
22069;DHT22;13887;57.196;-2.100;2022-09-13T06:46:32;13.66;76.90
22069;DHT22;13887;57.196;-2.100;2022-09-13T06:49:04;13.69;76.89
22069;DHT22;13887;57.196;-2.100;2022-09-13T06:51:33;13.70;76.76
22069;DHT22;13887;57.196;-2.100;2022-09-13T06:54:01;13.69;76.79
22069;DHT22;13887;57.196;-2.100;2022-09-13T06:56:31;13.69;76.73
22069;DHT22;13887;57.196;-2.100;2022-09-13T06:59:00;13.73;76.76
22069;DHT22;13887;57.196;-2.100;2022-09-13T07:01:31;13.76;76.60
22069;DHT22;13887;57.196;-2.100;2022-09-13T07:04:01;13.74;76.44
22069;DHT22;13887;57.196;-2.100;2022-09-13T07:06:31;13.68;76.62
22069;DHT22;13887;57.196;-2.100;2022-09-13T07:09:00;13.71;76.73
22069;DHT22;13887;57.196;-2.100;2022-09-13T07:11:33;13.68;76.63
22069;DHT22;13887;57.196;-2.100;2022-09-13T07:14:00;13.71;76.64
22069;DHT22;13887;57.196;-2.100;2022-09-13T07:16:29;13.76;76.54
22069;DHT22;13887;57.196;-2.100;2022-09-13T07:19:01;13.78;76.40
22069;DHT22;13887;57.196;-2.100;2022-09-13T07:21:31;13.75;75.97
22069;DHT22;13887;57.196;-2.100;2022-09-13T07:23:58;13.74;76.48
22069;DHT22;13887;57.196;-2.100;2022-09-13T07:26:26;13.69;76.50
22069;DHT22;13887;57.196;-2.100;2022-09-13T07:28:55;13.73;76.28
22069;DHT22;13887;57.196;-2.100;2022-09-13T07:31:25;13.76;76.02
22069;DHT22;13887;57.196;-2.100;2022-09-13T07:34:00;13.77;76.04
22069;DHT22;13887;57.196;-2.100;2022-09-13T07:36:29;13.79;75.98
22069;DHT22;13887;57.196;-2.100;2022-09-13T07:38:57;13.82;76.12
22069;DHT22;13887;57.196;-2.100;2022-09-13T07:41:25;13.81;76.14
22069;DHT22;13887;57.196;-2.100;2022-09-13T07:43:53;13.81;76.20
22069;DHT22;13887;57.196;-2.100;2022-09-13T07:46:22;13.78;76.25
22069;DHT22;13887;57.196;-2.100;2022-09-13T07:48:52;13.80;76.31
22069;DHT22;13887;57.196;-2.100;2022-09-13T07:51:22;13.78;76.24
22069;DHT22;13887;57.196;-2.100;2022-09-13T07:53:51;13.80;76.15
22069;DHT22;13887;57.196;-2.100;2022-09-13T07:56:28;13.79;76.12
22069;DHT22;13887;57.196;-2.100;2022-09-13T07:58:57;13.80;76.18
22069;DHT22;13887;57.196;-2.100;2022-09-13T08:01:28;13.81;76.10
22069;DHT22;13887;57.196;-2.100;2022-09-13T08:03:56;13.81;75.87
22069;DHT22;13887;57.196;-2.100;2022-09-13T08:06:24;13.83;75.63
22069;DHT22;13887;57.196;-2.100;2022-09-13T08:08:52;13.85;75.90
22069;DHT22;13887;57.196;-2.100;2022-09-13T08:11:39;13.89;75.71
22069;DHT22;13887;57.196;-2.100;2022-09-13T08:14:10;13.89;75.75
22069;DHT22;13887;57.196;-2.100;2022-09-13T08:16:37;13.90;75.38
22069;DHT22;13887;57.196;-2.100;2022-09-13T08:19:06;13.91;75.28
22069;DHT22;13887;57.196;-2.100;2022-09-13T08:21:36;13.93;75.09
22069;DHT22;13887;57.196;-2.100;2022-09-13T08:24:05;13.95;75.24
22069;DHT22;13887;57.196;-2.100;2022-09-13T08:26:33;13.95;74.83
22069;DHT22;13887;57.196;-2.100;2022-09-13T08:29:03;13.95;74.62
22069;DHT22;13887;57.196;-2.100;2022-09-13T08:31:31;13.97;74.70
22069;DHT22;13887;57.196;-2.100;2022-09-13T08:33:58;13.96;74.47
22069;DHT22;13887;57.196;-2.100;2022-09-13T08:36:26;13.99;74.39
22069;DHT22;13887;57.196;-2.100;2022-09-13T08:38:56;14.00;74.04
22069;DHT22;13887;57.196;-2.100;2022-09-13T08:46:46;14.00;73.91
22069;DHT22;13887;57.196;-2.100;2022-09-13T08:51:53;14.04;73.59
22069;DHT22;13887;57.196;-2.100;2022-09-13T08:54:21;14.04;73.66
22069;DHT22;13887;57.196;-2.100;2022-09-13T08:57:02;14.03;73.37
22069;DHT22;13887;57.196;-2.100;2022-09-13T09:05:24;14.05;73.52
22069;DHT22;13887;57.196;-2.100;2022-09-13T09:08:07;14.01;73.26
22069;DHT22;13887;57.196;-2.100;2022-09-13T09:10:44;14.04;72.99
22069;DHT22;13887;57.196;-2.100;2022-09-13T09:13:33;14.05;73.32
22069;DHT22;13887;57.196;-2.100;2022-09-13T09:16:31;14.07;73.46
22069;DHT22;13887;57.196;-2.100;2022-09-13T09:19:24;14.07;73.63
22069;DHT22;13887;57.196;-2.100;2022-09-13T09:21:52;14.08;73.56
22069;DHT22;13887;57.196;-2.100;2022-09-13T09:24:22;14.07;73.67
22069;DHT22;13887;57.196;-2.100;2022-09-13T09:26:54;14.11;73.08
22069;DHT22;13887;57.196;-2.100;2022-09-13T09:29:25;14.13;73.40
22069;DHT22;13887;57.196;-2.100;2022-09-13T09:34:50;14.15;72.61
22069;DHT22;13887;57.196;-2.100;2022-09-13T09:37:27;14.17;72.82
22069;DHT22;13887;57.196;-2.100;2022-09-13T09:40:01;14.18;71.46
22069;DHT22;13887;57.196;-2.100;2022-09-13T09:42:44;14.18;71.38
22069;DHT22;13887;57.196;-2.100;2022-09-13T09:45:27;14.19;71.88
22069;DHT22;13887;57.196;-2.100;2022-09-13T09:47:57;14.21;71.45
22069;DHT22;13887;57.196;-2.100;2022-09-13T09:50:27;14.23;70.85
22069;DHT22;13887;57.196;-2.100;2022-09-13T10:00:29;14.24;71.29
22069;DHT22;13887;57.196;-2.100;2022-09-13T10:03:18;14.22;70.54
22069;DHT22;13887;57.196;-2.100;2022-09-13T10:05:46;14.23;70.92
22069;DHT22;13887;57.196;-2.100;2022-09-13T10:08:32;14.25;70.90
22069;DHT22;13887;57.196;-2.100;2022-09-13T10:10:59;14.26;70.92
22069;DHT22;13887;57.196;-2.100;2022-09-13T10:13:28;14.24;70.98
22069;DHT22;13887;57.196;-2.100;2022-09-13T10:16:02;14.25;70.22
22069;DHT22;13887;57.196;-2.100;2022-09-13T10:18:36;14.28;70.63
22069;DHT22;13887;57.196;-2.100;2022-09-13T10:23:45;14.29;70.55
22069;DHT22;13887;57.196;-2.100;2022-09-13T10:31:20;14.33;70.99
22069;DHT22;13887;57.196;-2.100;2022-09-13T10:33:59;14.33;71.15
22069;DHT22;13887;57.196;-2.100;2022-09-13T10:36:32;14.34;70.25
22069;DHT22;13887;57.196;-2.100;2022-09-13T10:39:20;14.35;71.06
22069;DHT22;13887;57.196;-2.100;2022-09-13T10:41:54;14.34;71.25
22069;DHT22;13887;57.196;-2.100;2022-09-13T10:46:52;14.37;70.90
22069;DHT22;13887;57.196;-2.100;2022-09-13T10:49:41;14.38;71.38
22069;DHT22;13887;57.196;-2.100;2022-09-13T10:52:26;14.39;71.64
22069;DHT22;13887;57.196;-2.100;2022-09-13T10:54:54;14.40;71.77
22069;DHT22;13887;57.196;-2.100;2022-09-13T10:57:34;14.41;71.57
22069;DHT22;13887;57.196;-2.100;2022-09-13T11:00:04;14.41;71.51
22069;DHT22;13887;57.196;-2.100;2022-09-13T11:05:46;14.42;71.87
22069;DHT22;13887;57.196;-2.100;2022-09-13T11:13:50;14.48;72.00
22069;DHT22;13887;57.196;-2.100;2022-09-13T11:16:50;14.51;71.93
22069;DHT22;13887;57.196;-2.100;2022-09-13T11:19:16;14.53;71.93
22069;DHT22;13887;57.196;-2.100;2022-09-13T11:24:37;14.56;71.71
22069;DHT22;13887;57.196;-2.100;2022-09-13T11:30:08;14.56;71.83
22069;DHT22;13887;57.196;-2.100;2022-09-13T11:43:56;14.62;70.83
22069;DHT22;13887;57.196;-2.100;2022-09-13T11:57:52;14.64;69.95
22069;DHT22;13887;57.196;-2.100;2022-09-13T12:00:22;14.69;69.74
22069;DHT22;13887;57.196;-2.100;2022-09-13T12:08:43;14.72;70.02
22069;DHT22;13887;57.196;-2.100;2022-09-13T12:11:18;14.73;70.69
22069;DHT22;13887;57.196;-2.100;2022-09-13T12:14:01;14.77;69.52
22069;DHT22;13887;57.196;-2.100;2022-09-13T12:16:30;14.77;69.85
22069;DHT22;13887;57.196;-2.100;2022-09-13T12:19:10;14.79;69.61
22069;DHT22;13887;57.196;-2.100;2022-09-13T12:21:40;14.80;69.63
22069;DHT22;13887;57.196;-2.100;2022-09-13T12:27:02;14.79;69.38
22069;DHT22;13887;57.196;-2.100;2022-09-13T12:29:44;14.80;69.79
22069;DHT22;13887;57.196;-2.100;2022-09-13T12:32:16;14.80;69.64
22069;DHT22;13887;57.196;-2.100;2022-09-13T12:34:57;14.81;69.92
22069;DHT22;13887;57.196;-2.100;2022-09-13T12:46:13;14.85;70.18
22069;DHT22;13887;57.196;-2.100;2022-09-13T12:49:03;14.84;70.88
22069;DHT22;13887;57.196;-2.100;2022-09-13T12:57:28;14.89;71.06
22069;DHT22;13887;57.196;-2.100;2022-09-13T13:00:10;14.93;71.26
22069;DHT22;13887;57.196;-2.100;2022-09-13T13:05:33;14.98;71.36
22069;DHT22;13887;57.196;-2.100;2022-09-13T13:13:37;15.04;70.55
22069;DHT22;13887;57.196;-2.100;2022-09-13T13:18:48;15.02;70.71
22069;DHT22;13887;57.196;-2.100;2022-09-13T13:21:36;15.02;71.03
22069;DHT22;13887;57.196;-2.100;2022-09-13T13:29:29;15.04;71.32
22069;DHT22;13887;57.196;-2.100;2022-09-13T13:36:55;15.07;70.89
22069;DHT22;13887;57.196;-2.100;2022-09-13T14:00:24;15.17;71.00
22069;DHT22;13887;57.196;-2.100;2022-09-13T14:05:39;15.21;70.86
22069;DHT22;13887;57.196;-2.100;2022-09-13T14:17:17;15.31;70.98
22069;DHT22;13887;57.196;-2.100;2022-09-13T14:19:53;15.29;71.26
22069;DHT22;13887;57.196;-2.100;2022-09-13T14:22:22;15.29;72.07
22069;DHT22;13887;57.196;-2.100;2022-09-13T14:29:51;15.33;71.05
22069;DHT22;13887;57.196;-2.100;2022-09-13T14:32:21;15.33;72.03
22069;DHT22;13887;57.196;-2.100;2022-09-13T14:34:57;15.33;71.80
22069;DHT22;13887;57.196;-2.100;2022-09-13T14:37:35;15.37;71.81
22069;DHT22;13887;57.196;-2.100;2022-09-13T14:42:46;15.39;71.06
22069;DHT22;13887;57.196;-2.100;2022-09-13T14:45:15;15.39;71.51
22069;DHT22;13887;57.196;-2.100;2022-09-13T14:47:59;15.38;71.79
22069;DHT22;13887;57.196;-2.100;2022-09-13T14:50:32;15.38;71.67
22069;DHT22;13887;57.196;-2.100;2022-09-13T14:53:05;15.38;72.21
22069;DHT22;13887;57.196;-2.100;2022-09-13T15:01:12;15.39;73.09
22069;DHT22;13887;57.196;-2.100;2022-09-13T15:03:44;15.38;72.78
22069;DHT22;13887;57.196;-2.100;2022-09-13T15:06:40;15.40;73.06
22069;DHT22;13887;57.196;-2.100;2022-09-13T15:11:41;15.38;73.11
22069;DHT22;13887;57.196;-2.100;2022-09-13T15:14:35;15.39;73.43
22069;DHT22;13887;57.196;-2.100;2022-09-13T15:19:48;15.37;74.03
22069;DHT22;13887;57.196;-2.100;2022-09-13T15:22:20;15.38;74.11
22069;DHT22;13887;57.196;-2.100;2022-09-13T15:24:56;15.39;74.04
22069;DHT22;13887;57.196;-2.100;2022-09-13T15:29:57;15.40;74.23
22069;DHT22;13887;57.196;-2.100;2022-09-13T15:32:33;15.40;74.66
22069;DHT22;13887;57.196;-2.100;2022-09-13T15:35:01;15.41;74.83
22069;DHT22;13887;57.196;-2.100;2022-09-13T15:37:37;15.41;74.60
22069;DHT22;13887;57.196;-2.100;2022-09-13T15:42:49;15.42;74.20
22069;DHT22;13887;57.196;-2.100;2022-09-13T15:45:18;15.42;74.04
22069;DHT22;13887;57.196;-2.100;2022-09-13T15:47:48;15.41;74.30
22069;DHT22;13887;57.196;-2.100;2022-09-13T15:50:24;15.42;74.16
22069;DHT22;13887;57.196;-2.100;2022-09-13T15:52:53;15.43;74.60
22069;DHT22;13887;57.196;-2.100;2022-09-13T15:55:21;15.41;74.93
22069;DHT22;13887;57.196;-2.100;2022-09-13T15:57:48;15.42;75.39
22069;DHT22;13887;57.196;-2.100;2022-09-13T16:00:19;15.39;75.57
22069;DHT22;13887;57.196;-2.100;2022-09-13T16:02:47;15.38;75.76
22069;DHT22;13887;57.196;-2.100;2022-09-13T16:05:14;15.40;75.79
22069;DHT22;13887;57.196;-2.100;2022-09-13T16:07:41;15.38;75.85
22069;DHT22;13887;57.196;-2.100;2022-09-13T16:10:15;15.40;75.99
22069;DHT22;13887;57.196;-2.100;2022-09-13T16:12:44;15.38;76.21
22069;DHT22;13887;57.196;-2.100;2022-09-13T16:15:11;15.34;76.46
22069;DHT22;13887;57.196;-2.100;2022-09-13T16:17:39;15.37;76.59
22069;DHT22;13887;57.196;-2.100;2022-09-13T16:20:06;15.37;76.66
22069;DHT22;13887;57.196;-2.100;2022-09-13T16:22:34;15.37;76.87
22069;DHT22;13887;57.196;-2.100;2022-09-13T16:25:02;15.34;77.13
22069;DHT22;13887;57.196;-2.100;2022-09-13T16:27:29;15.33;77.28
22069;DHT22;13887;57.196;-2.100;2022-09-13T16:30:00;15.31;77.08
22069;DHT22;13887;57.196;-2.100;2022-09-13T16:32:27;15.30;77.44
22069;DHT22;13887;57.196;-2.100;2022-09-13T16:34:54;15.32;77.44
22069;DHT22;13887;57.196;-2.100;2022-09-13T16:37:21;15.39;77.78
22069;DHT22;13887;57.196;-2.100;2022-09-13T16:39:48;15.40;77.95
22069;DHT22;13887;57.196;-2.100;2022-09-13T16:42:15;15.41;77.90
22069;DHT22;13887;57.196;-2.100;2022-09-13T16:44:45;15.42;77.87
22069;DHT22;13887;57.196;-2.100;2022-09-13T16:47:12;15.43;77.96
22069;DHT22;13887;57.196;-2.100;2022-09-13T16:49:39;15.45;77.95
22069;DHT22;13887;57.196;-2.100;2022-09-13T16:52:06;15.44;78.01
22069;DHT22;13887;57.196;-2.100;2022-09-13T16:54:33;15.43;78.00
22069;DHT22;13887;57.196;-2.100;2022-09-13T16:57:02;15.43;78.08
22069;DHT22;13887;57.196;-2.100;2022-09-13T16:59:32;15.43;78.05
22069;DHT22;13887;57.196;-2.100;2022-09-13T17:01:59;15.42;78.22
22069;DHT22;13887;57.196;-2.100;2022-09-13T17:04:26;15.41;78.30
22069;DHT22;13887;57.196;-2.100;2022-09-13T17:06:53;15.41;78.19
22069;DHT22;13887;57.196;-2.100;2022-09-13T17:09:20;15.40;78.29
22069;DHT22;13887;57.196;-2.100;2022-09-13T17:11:49;15.39;78.25
22069;DHT22;13887;57.196;-2.100;2022-09-13T17:14:16;15.41;78.33
22069;DHT22;13887;57.196;-2.100;2022-09-13T17:16:46;15.43;78.39
22069;DHT22;13887;57.196;-2.100;2022-09-13T17:19:18;15.39;78.40
22069;DHT22;13887;57.196;-2.100;2022-09-13T17:21:45;15.39;78.43
22069;DHT22;13887;57.196;-2.100;2022-09-13T17:24:12;15.39;78.46
22069;DHT22;13887;57.196;-2.100;2022-09-13T17:26:43;15.37;78.63
22069;DHT22;13887;57.196;-2.100;2022-09-13T17:29:11;15.36;78.57
22069;DHT22;13887;57.196;-2.100;2022-09-13T17:31:38;15.39;78.32
22069;DHT22;13887;57.196;-2.100;2022-09-13T17:34:05;15.36;78.87
22069;DHT22;13887;57.196;-2.100;2022-09-13T17:36:32;15.39;78.66
22069;DHT22;13887;57.196;-2.100;2022-09-13T17:38:59;15.38;78.69
22069;DHT22;13887;57.196;-2.100;2022-09-13T17:41:26;15.40;78.59
22069;DHT22;13887;57.196;-2.100;2022-09-13T17:43:53;15.38;78.54
22069;DHT22;13887;57.196;-2.100;2022-09-13T17:46:22;15.39;78.46
22069;DHT22;13887;57.196;-2.100;2022-09-13T17:48:51;15.39;78.50
22069;DHT22;13887;57.196;-2.100;2022-09-13T17:51:21;15.36;78.59
22069;DHT22;13887;57.196;-2.100;2022-09-13T17:53:54;15.40;78.50
22069;DHT22;13887;57.196;-2.100;2022-09-13T17:56:29;15.38;78.61
22069;DHT22;13887;57.196;-2.100;2022-09-13T17:59:08;15.38;78.53
22069;DHT22;13887;57.196;-2.100;2022-09-13T18:01:49;15.34;78.75
22069;DHT22;13887;57.196;-2.100;2022-09-13T18:04:18;15.33;78.86
22069;DHT22;13887;57.196;-2.100;2022-09-13T18:06:46;15.36;78.63
22069;DHT22;13887;57.196;-2.100;2022-09-13T18:09:13;15.36;78.21
22069;DHT22;13887;57.196;-2.100;2022-09-13T18:11:41;15.34;77.57
22069;DHT22;13887;57.196;-2.100;2022-09-13T18:14:13;15.33;76.66
22069;DHT22;13887;57.196;-2.100;2022-09-13T18:16:41;15.34;75.89
22069;DHT22;13887;57.196;-2.100;2022-09-13T18:19:08;15.34;76.06
22069;DHT22;13887;57.196;-2.100;2022-09-13T18:21:35;15.30;75.39
22069;DHT22;13887;57.196;-2.100;2022-09-13T18:24:03;15.31;74.96
22069;DHT22;13887;57.196;-2.100;2022-09-13T18:26:31;15.29;74.54
22069;DHT22;13887;57.196;-2.100;2022-09-13T18:29:04;15.31;74.25
22069;DHT22;13887;57.196;-2.100;2022-09-13T18:31:33;15.29;73.90
22069;DHT22;13887;57.196;-2.100;2022-09-13T18:34:02;15.29;73.79
22069;DHT22;13887;57.196;-2.100;2022-09-13T18:36:31;15.29;73.62
22069;DHT22;13887;57.196;-2.100;2022-09-13T18:38:59;15.28;73.53
22069;DHT22;13887;57.196;-2.100;2022-09-13T18:41:37;15.26;73.87
22069;DHT22;13887;57.196;-2.100;2022-09-13T18:44:11;15.30;73.16
22069;DHT22;13887;57.196;-2.100;2022-09-13T18:46:39;15.27;72.99
22069;DHT22;13887;57.196;-2.100;2022-09-13T18:49:07;15.27;73.15
22069;DHT22;13887;57.196;-2.100;2022-09-13T18:51:36;15.28;73.10
22069;DHT22;13887;57.196;-2.100;2022-09-13T18:54:04;15.27;73.15
22069;DHT22;13887;57.196;-2.100;2022-09-13T18:56:32;15.27;73.56
22069;DHT22;13887;57.196;-2.100;2022-09-13T18:59:03;15.27;73.12
22069;DHT22;13887;57.196;-2.100;2022-09-13T19:01:35;15.26;73.44
22069;DHT22;13887;57.196;-2.100;2022-09-13T19:04:10;15.26;73.25
22069;DHT22;13887;57.196;-2.100;2022-09-13T19:06:40;15.27;73.36
22069;DHT22;13887;57.196;-2.100;2022-09-13T19:09:08;15.26;73.34
22069;DHT22;13887;57.196;-2.100;2022-09-13T19:11:42;15.26;73.44
22069;DHT22;13887;57.196;-2.100;2022-09-13T19:14:16;15.26;73.72
22069;DHT22;13887;57.196;-2.100;2022-09-13T19:16:44;15.26;73.58
22069;DHT22;13887;57.196;-2.100;2022-09-13T19:19:11;15.27;73.38
22069;DHT22;13887;57.196;-2.100;2022-09-13T19:21:38;15.26;73.36
22069;DHT22;13887;57.196;-2.100;2022-09-13T19:24:05;15.24;73.61
22069;DHT22;13887;57.196;-2.100;2022-09-13T19:26:39;15.22;73.64
22069;DHT22;13887;57.196;-2.100;2022-09-13T19:29:11;15.23;73.64
22069;DHT22;13887;57.196;-2.100;2022-09-13T19:31:41;15.24;73.50